SCSE/LSC METAR and TAF weather

Enter ICAO airport designator
Station Type Date Time Source
SCSE METAR 2020/01/18 15:00 UTC NOAA

SCSE 181500Z 27009KT 9999 OVC014 18/15 Q1012


Station Type Date Time Source
SCSE Decoded METAR 2020/01/18 15:00 UTC NOAA

La Serena, Chile (SCSE) 29-54S 071-12W
Jan 18, 2020 - 10:00 AM EST / 2020.01.18 1500 UTC
Wind: from the W (270 degrees) at 10 MPH (9 KT):0
Visibility: greater than 7 mile(s):0
Sky conditions: overcast
Temperature: 64 F (18 C)
Dew Point: 59 F (15 C)
Relative Humidity: 82%
Pressure (altimeter): 29.88 in. Hg (1012 hPa)
ob: SCSE 181500Z 27009KT 9999 OVC014 18/15 Q1012
cycle: 15

Station Type Date Time Source
SCSE TAF 2020/01/18 12:03 UTC NOAA

TAF TAF SCSE 181033Z 1812/1912 28004KT 9999 FEW010 TX21/1819Z TN14/1911Z
TEMPO 1812/1813 11004KT 7000 SCT007 OVC010
BECMG 1814/1816 28008KT CAVOK
BECMG 1818/1820 28013KT
BECMG 1901/1903 29006KT
BECMG 1906/1908 SCT010

Example: see airport list